sensor_id;sensor_type;location;lat;lon;timestamp;P1;durP1;ratioP1;P2;durP2;ratioP2
44774;SDS011;31340;51.402;0.016;2022-09-12T00:01:04;32.80;;;19.85;;
44774;SDS011;31340;51.402;0.016;2022-09-12T00:03:34;28.58;;;19.05;;
44774;SDS011;31340;51.402;0.016;2022-09-12T00:06:06;29.10;;;19.17;;
44774;SDS011;31340;51.402;0.016;2022-09-12T00:08:49;32.30;;;20.95;;
44774;SDS011;31340;51.402;0.016;2022-09-12T00:11:20;28.92;;;18.77;;
44774;SDS011;31340;51.402;0.016;2022-09-12T00:13:47;30.92;;;20.42;;
44774;SDS011;31340;51.402;0.016;2022-09-12T00:16:20;31.40;;;21.02;;
44774;SDS011;31340;51.402;0.016;2022-09-12T00:18:50;35.03;;;23.27;;
44774;SDS011;31340;51.402;0.016;2022-09-12T00:21:18;36.08;;;22.10;;
44774;SDS011;31340;51.402;0.016;2022-09-12T00:23:48;39.20;;;24.20;;
44774;SDS011;31340;51.402;0.016;2022-09-12T00:26:15;35.65;;;23.77;;
44774;SDS011;31340;51.402;0.016;2022-09-12T00:28:44;34.03;;;21.15;;
44774;SDS011;31340;51.402;0.016;2022-09-12T00:31:13;40.75;;;26.40;;
44774;SDS011;31340;51.402;0.016;2022-09-12T00:33:42;44.28;;;25.70;;
44774;SDS011;31340;51.402;0.016;2022-09-12T00:36:11;33.53;;;22.67;;
44774;SDS011;31340;51.402;0.016;2022-09-12T00:41:14;37.78;;;24.35;;
44774;SDS011;31340;51.402;0.016;2022-09-12T00:43:51;44.90;;;25.43;;
44774;SDS011;31340;51.402;0.016;2022-09-12T00:46:25;43.75;;;26.45;;
44774;SDS011;31340;51.402;0.016;2022-09-12T00:49:15;41.87;;;27.40;;
44774;SDS011;31340;51.402;0.016;2022-09-12T00:51:50;40.40;;;26.88;;
44774;SDS011;31340;51.402;0.016;2022-09-12T00:54:23;42.88;;;28.75;;
44774;SDS011;31340;51.402;0.016;2022-09-12T00:56:55;39.22;;;25.48;;
44774;SDS011;31340;51.402;0.016;2022-09-12T00:59:28;39.45;;;25.60;;
44774;SDS011;31340;51.402;0.016;2022-09-12T01:02:01;37.05;;;25.38;;
44774;SDS011;31340;51.402;0.016;2022-09-12T01:04:29;37.17;;;24.73;;
44774;SDS011;31340;51.402;0.016;2022-09-12T01:06:57;45.45;;;28.33;;
44774;SDS011;31340;51.402;0.016;2022-09-12T01:09:24;44.55;;;27.13;;
44774;SDS011;31340;51.402;0.016;2022-09-12T01:11:52;38.35;;;24.85;;
44774;SDS011;31340;51.402;0.016;2022-09-12T01:14:20;37.50;;;26.20;;
44774;SDS011;31340;51.402;0.016;2022-09-12T01:16:48;39.28;;;25.92;;
44774;SDS011;31340;51.402;0.016;2022-09-12T01:19:42;38.47;;;25.13;;
44774;SDS011;31340;51.402;0.016;2022-09-12T01:22:49;40.33;;;25.20;;
44774;SDS011;31340;51.402;0.016;2022-09-12T01:30:42;40.42;;;25.85;;
44774;SDS011;31340;51.402;0.016;2022-09-12T01:33:44;33.75;;;22.58;;
44774;SDS011;31340;51.402;0.016;2022-09-12T01:36:38;41.95;;;22.80;;
44774;SDS011;31340;51.402;0.016;2022-09-12T01:44:58;33.40;;;22.60;;
44774;SDS011;31340;51.402;0.016;2022-09-12T01:50:20;30.27;;;18.20;;
44774;SDS011;31340;51.402;0.016;2022-09-12T01:55:35;29.55;;;18.65;;
44774;SDS011;31340;51.402;0.016;2022-09-12T02:00:41;27.95;;;17.73;;
44774;SDS011;31340;51.402;0.016;2022-09-12T02:03:15;29.40;;;18.80;;
44774;SDS011;31340;51.402;0.016;2022-09-12T02:05:48;26.75;;;18.42;;
44774;SDS011;31340;51.402;0.016;2022-09-12T02:08:34;33.83;;;20.73;;
44774;SDS011;31340;51.402;0.016;2022-09-12T02:11:09;28.20;;;17.00;;
44774;SDS011;31340;51.402;0.016;2022-09-12T02:13:41;28.02;;;17.40;;
44774;SDS011;31340;51.402;0.016;2022-09-12T02:16:12;26.08;;;17.02;;
44774;SDS011;31340;51.402;0.016;2022-09-12T02:18:49;23.65;;;16.05;;
44774;SDS011;31340;51.402;0.016;2022-09-12T02:21:21;26.17;;;16.25;;
44774;SDS011;31340;51.402;0.016;2022-09-12T02:23:53;23.88;;;15.52;;
44774;SDS011;31340;51.402;0.016;2022-09-12T02:26:28;23.85;;;15.35;;
44774;SDS011;31340;51.402;0.016;2022-09-12T02:28:58;25.33;;;17.55;;
44774;SDS011;31340;51.402;0.016;2022-09-12T02:31:34;25.17;;;15.95;;
44774;SDS011;31340;51.402;0.016;2022-09-12T02:39:26;23.38;;;15.57;;
44774;SDS011;31340;51.402;0.016;2022-09-12T02:41:54;20.90;;;14.40;;
44774;SDS011;31340;51.402;0.016;2022-09-12T02:44:25;26.42;;;14.73;;
44774;SDS011;31340;51.402;0.016;2022-09-12T02:46:55;22.02;;;14.13;;
44774;SDS011;31340;51.402;0.016;2022-09-12T02:49:29;21.70;;;13.98;;
44774;SDS011;31340;51.402;0.016;2022-09-12T02:51:57;24.35;;;14.57;;
44774;SDS011;31340;51.402;0.016;2022-09-12T02:54:26;19.60;;;14.57;;
44774;SDS011;31340;51.402;0.016;2022-09-12T02:56:55;22.27;;;13.90;;
44774;SDS011;31340;51.402;0.016;2022-09-12T02:59:22;22.48;;;13.07;;
44774;SDS011;31340;51.402;0.016;2022-09-12T03:22:05;14.10;;;8.82;;
44774;SDS011;31340;51.402;0.016;2022-09-12T03:24:53;15.70;;;9.75;;
44774;SDS011;31340;51.402;0.016;2022-09-12T03:27:32;14.18;;;9.35;;
44774;SDS011;31340;51.402;0.016;2022-09-12T03:30:03;16.77;;;9.23;;
44774;SDS011;31340;51.402;0.016;2022-09-12T03:32:41;18.90;;;10.30;;
44774;SDS011;31340;51.402;0.016;2022-09-12T03:35:14;13.68;;;9.63;;
44774;SDS011;31340;51.402;0.016;2022-09-12T03:37:48;17.50;;;10.27;;
44774;SDS011;31340;51.402;0.016;2022-09-12T03:40:17;21.92;;;10.98;;
44774;SDS011;31340;51.402;0.016;2022-09-12T03:42:45;14.90;;;10.07;;
44774;SDS011;31340;51.402;0.016;2022-09-12T03:45:13;14.27;;;9.32;;
44774;SDS011;31340;51.402;0.016;2022-09-12T03:47:42;13.88;;;9.50;;
44774;SDS011;31340;51.402;0.016;2022-09-12T03:50:09;16.20;;;10.18;;
44774;SDS011;31340;51.402;0.016;2022-09-12T03:52:37;19.88;;;10.65;;
44774;SDS011;31340;51.402;0.016;2022-09-12T03:55:05;16.17;;;10.80;;
44774;SDS011;31340;51.402;0.016;2022-09-12T03:57:33;14.25;;;10.35;;
44774;SDS011;31340;51.402;0.016;2022-09-12T04:00:00;19.50;;;11.90;;
44774;SDS011;31340;51.402;0.016;2022-09-12T04:02:38;17.40;;;10.93;;
44774;SDS011;31340;51.402;0.016;2022-09-12T04:05:06;15.15;;;10.57;;
44774;SDS011;31340;51.402;0.016;2022-09-12T04:07:33;17.30;;;11.27;;
44774;SDS011;31340;51.402;0.016;2022-09-12T04:10:01;17.90;;;11.55;;
44774;SDS011;31340;51.402;0.016;2022-09-12T04:12:30;14.55;;;10.02;;
44774;SDS011;31340;51.402;0.016;2022-09-12T04:14:57;13.77;;;10.68;;
44774;SDS011;31340;51.402;0.016;2022-09-12T04:17:24;15.23;;;10.68;;
44774;SDS011;31340;51.402;0.016;2022-09-12T04:19:52;17.25;;;11.32;;
44774;SDS011;31340;51.402;0.016;2022-09-12T04:22:19;18.92;;;11.05;;
44774;SDS011;31340;51.402;0.016;2022-09-12T04:24:47;17.10;;;11.77;;
44774;SDS011;31340;51.402;0.016;2022-09-12T04:27:15;16.95;;;11.13;;
44774;SDS011;31340;51.402;0.016;2022-09-12T04:29:42;14.27;;;10.98;;
44774;SDS011;31340;51.402;0.016;2022-09-12T04:32:10;19.40;;;10.93;;
44774;SDS011;31340;51.402;0.016;2022-09-12T04:34:38;14.52;;;11.45;;
44774;SDS011;31340;51.402;0.016;2022-09-12T04:37:05;14.05;;;10.98;;
44774;SDS011;31340;51.402;0.016;2022-09-12T04:39:33;16.17;;;10.75;;
44774;SDS011;31340;51.402;0.016;2022-09-12T04:42:00;19.73;;;11.80;;
44774;SDS011;31340;51.402;0.016;2022-09-12T04:44:29;17.35;;;11.77;;
44774;SDS011;31340;51.402;0.016;2022-09-12T04:46:57;17.63;;;11.75;;
44774;SDS011;31340;51.402;0.016;2022-09-12T04:49:24;16.70;;;10.02;;
44774;SDS011;31340;51.402;0.016;2022-09-12T04:51:52;16.25;;;11.00;;
44774;SDS011;31340;51.402;0.016;2022-09-12T04:54:21;15.35;;;10.52;;
44774;SDS011;31340;51.402;0.016;2022-09-12T04:56:48;15.85;;;10.07;;
44774;SDS011;31340;51.402;0.016;2022-09-12T04:59:18;17.92;;;10.30;;
44774;SDS011;31340;51.402;0.016;2022-09-12T05:01:46;22.02;;;11.35;;
44774;SDS011;31340;51.402;0.016;2022-09-12T05:04:14;17.42;;;11.80;;
44774;SDS011;31340;51.402;0.016;2022-09-12T05:06:42;18.88;;;11.68;;
44774;SDS011;31340;51.402;0.016;2022-09-12T05:09:10;19.38;;;10.85;;
44774;SDS011;31340;51.402;0.016;2022-09-12T05:11:40;13.60;;;9.10;;
44774;SDS011;31340;51.402;0.016;2022-09-12T05:14:29;18.80;;;9.68;;
44774;SDS011;31340;51.402;0.016;2022-09-12T05:16:58;13.45;;;9.65;;
44774;SDS011;31340;51.402;0.016;2022-09-12T05:19:28;16.90;;;10.15;;
44774;SDS011;31340;51.402;0.016;2022-09-12T05:21:56;16.35;;;9.40;;
44774;SDS011;31340;51.402;0.016;2022-09-12T05:24:24;14.82;;;10.10;;
44774;SDS011;31340;51.402;0.016;2022-09-12T05:26:52;15.95;;;10.15;;
44774;SDS011;31340;51.402;0.016;2022-09-12T05:29:19;13.75;;;9.32;;
44774;SDS011;31340;51.402;0.016;2022-09-12T05:31:47;16.55;;;9.80;;
44774;SDS011;31340;51.402;0.016;2022-09-12T05:34:19;13.63;;;9.73;;
44774;SDS011;31340;51.402;0.016;2022-09-12T05:36:47;16.08;;;8.88;;
44774;SDS011;31340;51.402;0.016;2022-09-12T05:39:15;12.50;;;7.72;;
44774;SDS011;31340;51.402;0.016;2022-09-12T05:41:42;17.42;;;7.50;;
44774;SDS011;31340;51.402;0.016;2022-09-12T05:44:10;13.40;;;8.38;;
44774;SDS011;31340;51.402;0.016;2022-09-12T05:46:40;12.52;;;7.90;;
44774;SDS011;31340;51.402;0.016;2022-09-12T05:49:10;14.18;;;7.40;;
44774;SDS011;31340;51.402;0.016;2022-09-12T05:51:40;11.50;;;7.57;;
44774;SDS011;31340;51.402;0.016;2022-09-12T05:54:10;11.70;;;7.23;;
44774;SDS011;31340;51.402;0.016;2022-09-12T05:56:40;10.45;;;7.03;;
44774;SDS011;31340;51.402;0.016;2022-09-12T05:59:11;12.75;;;7.57;;
44774;SDS011;31340;51.402;0.016;2022-09-12T06:01:44;9.63;;;6.70;;
44774;SDS011;31340;51.402;0.016;2022-09-12T06:04:11;11.88;;;6.97;;
44774;SDS011;31340;51.402;0.016;2022-09-12T06:06:40;10.15;;;6.13;;
44774;SDS011;31340;51.402;0.016;2022-09-12T06:09:12;13.52;;;5.38;;
44774;SDS011;31340;51.402;0.016;2022-09-12T06:11:40;10.80;;;5.95;;
44774;SDS011;31340;51.402;0.016;2022-09-12T06:14:10;7.93;;;5.35;;
44774;SDS011;31340;51.402;0.016;2022-09-12T06:16:38;8.07;;;5.72;;
44774;SDS011;31340;51.402;0.016;2022-09-12T06:19:10;9.50;;;4.97;;
44774;SDS011;31340;51.402;0.016;2022-09-12T06:21:41;13.25;;;5.55;;
44774;SDS011;31340;51.402;0.016;2022-09-12T06:24:08;9.70;;;4.47;;
44774;SDS011;31340;51.402;0.016;2022-09-12T06:26:36;11.20;;;5.15;;
44774;SDS011;31340;51.402;0.016;2022-09-12T06:29:03;8.10;;;4.32;;
44774;SDS011;31340;51.402;0.016;2022-09-12T06:31:35;6.97;;;4.07;;
44774;SDS011;31340;51.402;0.016;2022-09-12T06:34:05;7.32;;;4.35;;
44774;SDS011;31340;51.402;0.016;2022-09-12T06:36:36;11.95;;;4.38;;
44774;SDS011;31340;51.402;0.016;2022-09-12T06:39:06;11.98;;;4.90;;
44774;SDS011;31340;51.402;0.016;2022-09-12T06:41:37;10.20;;;3.83;;
44774;SDS011;31340;51.402;0.016;2022-09-12T06:44:14;8.40;;;4.20;;
44774;SDS011;31340;51.402;0.016;2022-09-12T06:46:43;6.35;;;3.90;;
44774;SDS011;31340;51.402;0.016;2022-09-12T06:49:11;7.13;;;3.55;;
44774;SDS011;31340;51.402;0.016;2022-09-12T06:51:40;7.38;;;3.80;;
44774;SDS011;31340;51.402;0.016;2022-09-12T06:54:11;7.38;;;3.38;;
44774;SDS011;31340;51.402;0.016;2022-09-12T06:56:39;9.20;;;3.40;;
44774;SDS011;31340;51.402;0.016;2022-09-12T06:59:07;6.25;;;3.10;;
44774;SDS011;31340;51.402;0.016;2022-09-12T07:01:34;8.93;;;3.17;;
44774;SDS011;31340;51.402;0.016;2022-09-12T07:04:03;8.35;;;2.88;;
44774;SDS011;31340;51.402;0.016;2022-09-12T07:06:34;5.90;;;3.50;;
44774;SDS011;31340;51.402;0.016;2022-09-12T07:09:04;10.15;;;3.40;;
44774;SDS011;31340;51.402;0.016;2022-09-12T07:11:34;6.53;;;3.08;;
44774;SDS011;31340;51.402;0.016;2022-09-12T07:14:04;9.05;;;3.22;;
44774;SDS011;31340;51.402;0.016;2022-09-12T07:16:33;7.45;;;3.03;;
44774;SDS011;31340;51.402;0.016;2022-09-12T07:19:03;9.23;;;3.08;;
44774;SDS011;31340;51.402;0.016;2022-09-12T07:21:33;9.45;;;3.30;;
44774;SDS011;31340;51.402;0.016;2022-09-12T07:24:06;10.13;;;3.00;;
44774;SDS011;31340;51.402;0.016;2022-09-12T07:26:36;8.52;;;3.40;;
44774;SDS011;31340;51.402;0.016;2022-09-12T07:29:04;8.13;;;3.30;;
44774;SDS011;31340;51.402;0.016;2022-09-12T07:31:51;9.55;;;4.28;;
44774;SDS011;31340;51.402;0.016;2022-09-12T07:34:19;7.40;;;2.97;;
44774;SDS011;31340;51.402;0.016;2022-09-12T07:36:47;6.72;;;2.65;;
44774;SDS011;31340;51.402;0.016;2022-09-12T07:39:14;6.95;;;2.67;;
44774;SDS011;31340;51.402;0.016;2022-09-12T07:41:42;7.10;;;3.03;;
44774;SDS011;31340;51.402;0.016;2022-09-12T07:44:09;5.63;;;2.83;;
44774;SDS011;31340;51.402;0.016;2022-09-12T07:46:37;9.57;;;2.78;;
44774;SDS011;31340;51.402;0.016;2022-09-12T07:49:05;6.47;;;2.72;;
44774;SDS011;31340;51.402;0.016;2022-09-12T07:51:34;10.73;;;3.33;;
44774;SDS011;31340;51.402;0.016;2022-09-12T07:54:05;13.70;;;3.70;;
44774;SDS011;31340;51.402;0.016;2022-09-12T07:56:34;8.18;;;2.92;;
44774;SDS011;31340;51.402;0.016;2022-09-12T07:59:05;16.27;;;3.38;;
44774;SDS011;31340;51.402;0.016;2022-09-12T08:01:34;10.38;;;2.47;;
44774;SDS011;31340;51.402;0.016;2022-09-12T08:04:02;24.30;;;6.40;;
44774;SDS011;31340;51.402;0.016;2022-09-12T08:06:31;66.82;;;13.52;;
44774;SDS011;31340;51.402;0.016;2022-09-12T08:09:02;13.18;;;3.78;;
44774;SDS011;31340;51.402;0.016;2022-09-12T08:11:31;16.15;;;4.38;;
44774;SDS011;31340;51.402;0.016;2022-09-12T08:13:59;20.90;;;3.83;;
44774;SDS011;31340;51.402;0.016;2022-09-12T08:16:29;12.63;;;3.22;;
44774;SDS011;31340;51.402;0.016;2022-09-12T08:18:59;12.40;;;3.40;;
44774;SDS011;31340;51.402;0.016;2022-09-12T08:21:28;54.70;;;7.38;;
44774;SDS011;31340;51.402;0.016;2022-09-12T08:23:58;12.93;;;3.37;;
44774;SDS011;31340;51.402;0.016;2022-09-12T08:26:27;16.15;;;2.90;;
44774;SDS011;31340;51.402;0.016;2022-09-12T08:28:56;19.85;;;3.40;;
44774;SDS011;31340;51.402;0.016;2022-09-12T08:31:24;25.13;;;4.40;;
44774;SDS011;31340;51.402;0.016;2022-09-12T08:33:56;8.20;;;2.78;;
44774;SDS011;31340;51.402;0.016;2022-09-12T08:36:25;14.77;;;2.90;;
44774;SDS011;31340;51.402;0.016;2022-09-12T08:38:54;20.88;;;3.55;;
44774;SDS011;31340;51.402;0.016;2022-09-12T08:41:39;18.90;;;2.97;;
44774;SDS011;31340;51.402;0.016;2022-09-12T08:47:13;10.35;;;2.40;;
44774;SDS011;31340;51.402;0.016;2022-09-12T08:55:28;7.38;;;2.33;;
44774;SDS011;31340;51.402;0.016;2022-09-12T08:57:59;16.33;;;2.72;;
44774;SDS011;31340;51.402;0.016;2022-09-12T09:00:40;16.02;;;2.88;;
44774;SDS011;31340;51.402;0.016;2022-09-12T09:06:20;12.50;;;2.45;;
44774;SDS011;31340;51.402;0.016;2022-09-12T09:14:15;28.42;;;9.73;;
44774;SDS011;31340;51.402;0.016;2022-09-12T09:22:51;11.30;;;5.20;;
44774;SDS011;31340;51.402;0.016;2022-09-12T09:25:24;33.33;;;13.18;;
44774;SDS011;31340;51.402;0.016;2022-09-12T09:28:03;15.43;;;3.72;;
44774;SDS011;31340;51.402;0.016;2022-09-12T09:30:41;10.10;;;3.10;;
44774;SDS011;31340;51.402;0.016;2022-09-12T09:33:20;19.02;;;6.93;;
44774;SDS011;31340;51.402;0.016;2022-09-12T09:36:07;8.68;;;3.22;;
44774;SDS011;31340;51.402;0.016;2022-09-12T09:38:47;8.35;;;3.55;;
44774;SDS011;31340;51.402;0.016;2022-09-12T09:44:00;9.98;;;2.88;;
44774;SDS011;31340;51.402;0.016;2022-09-12T09:46:28;4.45;;;1.90;;
44774;SDS011;31340;51.402;0.016;2022-09-12T09:48:56;19.30;;;3.33;;
44774;SDS011;31340;51.402;0.016;2022-09-12T09:51:31;11.23;;;2.20;;
44774;SDS011;31340;51.402;0.016;2022-09-12T09:54:21;3.78;;;1.90;;
44774;SDS011;31340;51.402;0.016;2022-09-12T09:56:52;5.30;;;2.10;;
44774;SDS011;31340;51.402;0.016;2022-09-12T09:59:29;7.80;;;2.60;;
44774;SDS011;31340;51.402;0.016;2022-09-12T10:02:00;5.15;;;2.40;;
44774;SDS011;31340;51.402;0.016;2022-09-12T10:04:54;6.22;;;2.53;;
44774;SDS011;31340;51.402;0.016;2022-09-12T10:07:23;8.32;;;3.80;;
44774;SDS011;31340;51.402;0.016;2022-09-12T10:13:09;7.10;;;3.70;;
44774;SDS011;31340;51.402;0.016;2022-09-12T10:15:54;13.40;;;3.78;;
44774;SDS011;31340;51.402;0.016;2022-09-12T10:18:34;8.38;;;3.13;;
44774;SDS011;31340;51.402;0.016;2022-09-12T10:21:17;7.80;;;3.35;;
44774;SDS011;31340;51.402;0.016;2022-09-12T10:23:58;7.03;;;3.10;;
44774;SDS011;31340;51.402;0.016;2022-09-12T10:26:33;5.20;;;3.20;;
44774;SDS011;31340;51.402;0.016;2022-09-12T10:29:14;5.88;;;3.05;;
44774;SDS011;31340;51.402;0.016;2022-09-12T10:31:46;7.85;;;3.22;;
44774;SDS011;31340;51.402;0.016;2022-09-12T10:34:21;7.18;;;2.75;;
44774;SDS011;31340;51.402;0.016;2022-09-12T10:36:51;6.38;;;2.90;;
44774;SDS011;31340;51.402;0.016;2022-09-12T10:39:24;9.93;;;3.65;;
44774;SDS011;31340;51.402;0.016;2022-09-12T10:41:52;9.00;;;3.80;;
44774;SDS011;31340;51.402;0.016;2022-09-12T10:44:24;8.65;;;4.82;;
44774;SDS011;31340;51.402;0.016;2022-09-12T10:46:57;10.82;;;4.72;;
44774;SDS011;31340;51.402;0.016;2022-09-12T10:49:27;14.93;;;8.75;;
44774;SDS011;31340;51.402;0.016;2022-09-12T10:51:57;14.27;;;8.57;;
44774;SDS011;31340;51.402;0.016;2022-09-12T10:54:49;10.60;;;6.88;;
44774;SDS011;31340;51.402;0.016;2022-09-12T11:02:37;11.13;;;5.53;;
44774;SDS011;31340;51.402;0.016;2022-09-12T11:11:18;15.15;;;6.28;;
44774;SDS011;31340;51.402;0.016;2022-09-12T11:14:04;20.15;;;13.35;;
44774;SDS011;31340;51.402;0.016;2022-09-12T11:16:53;18.05;;;8.68;;
44774;SDS011;31340;51.402;0.016;2022-09-12T11:25:58;18.70;;;10.50;;
44774;SDS011;31340;51.402;0.016;2022-09-12T11:31:13;20.45;;;11.15;;
44774;SDS011;31340;51.402;0.016;2022-09-12T11:34:01;24.70;;;13.52;;
44774;SDS011;31340;51.402;0.016;2022-09-12T11:39:22;28.08;;;14.77;;
44774;SDS011;31340;51.402;0.016;2022-09-12T11:41:56;23.37;;;13.87;;
44774;SDS011;31340;51.402;0.016;2022-09-12T11:44:27;22.77;;;13.52;;
44774;SDS011;31340;51.402;0.016;2022-09-12T11:47:12;20.05;;;10.73;;
44774;SDS011;31340;51.402;0.016;2022-09-12T11:49:42;19.35;;;10.32;;
44774;SDS011;31340;51.402;0.016;2022-09-12T11:52:15;20.05;;;9.90;;
44774;SDS011;31340;51.402;0.016;2022-09-12T11:54:49;22.42;;;9.77;;
44774;SDS011;31340;51.402;0.016;2022-09-12T12:02:30;18.73;;;9.07;;
44774;SDS011;31340;51.402;0.016;2022-09-12T12:05:19;17.17;;;9.75;;
44774;SDS011;31340;51.402;0.016;2022-09-12T12:07:55;14.85;;;8.70;;
44774;SDS011;31340;51.402;0.016;2022-09-12T12:13:08;18.90;;;10.60;;
44774;SDS011;31340;51.402;0.016;2022-09-12T12:16:02;19.45;;;11.43;;
44774;SDS011;31340;51.402;0.016;2022-09-12T12:18:38;22.70;;;12.48;;
44774;SDS011;31340;51.402;0.016;2022-09-12T12:46:09;4.72;;;1.80;;
44774;SDS011;31340;51.402;0.016;2022-09-12T12:49:01;6.70;;;2.10;;
44774;SDS011;31340;51.402;0.016;2022-09-12T12:51:38;4.60;;;1.65;;
44774;SDS011;31340;51.402;0.016;2022-09-12T13:05:23;2.38;;;1.73;;
44774;SDS011;31340;51.402;0.016;2022-09-12T13:07:55;5.35;;;2.30;;
44774;SDS011;31340;51.402;0.016;2022-09-12T13:10:28;5.30;;;2.03;;
44774;SDS011;31340;51.402;0.016;2022-09-12T13:12:58;7.63;;;1.60;;
44774;SDS011;31340;51.402;0.016;2022-09-12T13:15:45;4.10;;;1.40;;
44774;SDS011;31340;51.402;0.016;2022-09-12T13:18:20;6.03;;;1.80;;
44774;SDS011;31340;51.402;0.016;2022-09-12T13:20:58;7.28;;;2.17;;
44774;SDS011;31340;51.402;0.016;2022-09-12T13:23:37;3.42;;;1.70;;
44774;SDS011;31340;51.402;0.016;2022-09-12T13:26:12;4.50;;;1.60;;
44774;SDS011;31340;51.402;0.016;2022-09-12T13:28:47;1.90;;;1.52;;
44774;SDS011;31340;51.402;0.016;2022-09-12T13:31:25;4.03;;;1.73;;
44774;SDS011;31340;51.402;0.016;2022-09-12T13:33:57;4.55;;;1.40;;
44774;SDS011;31340;51.402;0.016;2022-09-12T13:44:50;2.88;;;1.63;;
44774;SDS011;31340;51.402;0.016;2022-09-12T13:47:26;3.17;;;2.10;;
44774;SDS011;31340;51.402;0.016;2022-09-12T13:49:57;4.07;;;1.80;;
44774;SDS011;31340;51.402;0.016;2022-09-12T13:52:27;4.43;;;2.13;;
44774;SDS011;31340;51.402;0.016;2022-09-12T13:54:58;4.88;;;1.70;;
44774;SDS011;31340;51.402;0.016;2022-09-12T13:57:34;2.42;;;1.55;;
44774;SDS011;31340;51.402;0.016;2022-09-12T14:00:14;4.38;;;2.22;;
44774;SDS011;31340;51.402;0.016;2022-09-12T14:02:46;3.97;;;2.20;;
44774;SDS011;31340;51.402;0.016;2022-09-12T14:05:23;3.23;;;1.97;;
44774;SDS011;31340;51.402;0.016;2022-09-12T14:07:54;4.63;;;2.25;;
44774;SDS011;31340;51.402;0.016;2022-09-12T14:10:34;5.22;;;2.40;;
44774;SDS011;31340;51.402;0.016;2022-09-12T14:13:09;4.63;;;2.40;;
44774;SDS011;31340;51.402;0.016;2022-09-12T14:15:49;4.82;;;2.13;;
44774;SDS011;31340;51.402;0.016;2022-09-12T14:18:20;7.05;;;2.00;;
44774;SDS011;31340;51.402;0.016;2022-09-12T14:20:57;3.58;;;1.80;;
44774;SDS011;31340;51.402;0.016;2022-09-12T14:23:32;2.92;;;1.58;;
44774;SDS011;31340;51.402;0.016;2022-09-12T14:26:00;6.32;;;1.83;;
44774;SDS011;31340;51.402;0.016;2022-09-12T14:28:35;7.05;;;1.75;;
44774;SDS011;31340;51.402;0.016;2022-09-12T14:31:04;5.38;;;3.00;;
44774;SDS011;31340;51.402;0.016;2022-09-12T14:33:45;7.22;;;2.40;;
44774;SDS011;31340;51.402;0.016;2022-09-12T14:38:48;3.40;;;1.35;;
44774;SDS011;31340;51.402;0.016;2022-09-12T14:41:22;1.67;;;1.20;;
44774;SDS011;31340;51.402;0.016;2022-09-12T14:43:57;1.60;;;1.02;;
44774;SDS011;31340;51.402;0.016;2022-09-12T14:49:13;2.08;;;1.30;;
44774;SDS011;31340;51.402;0.016;2022-09-12T14:57:01;3.65;;;1.30;;
44774;SDS011;31340;51.402;0.016;2022-09-12T15:04:48;10.73;;;2.75;;
44774;SDS011;31340;51.402;0.016;2022-09-12T15:15:43;4.05;;;1.58;;
44774;SDS011;31340;51.402;0.016;2022-09-12T15:18:15;2.90;;;1.50;;
44774;SDS011;31340;51.402;0.016;2022-09-12T15:20:44;5.97;;;1.50;;
44774;SDS011;31340;51.402;0.016;2022-09-12T15:23:18;8.52;;;2.15;;
44774;SDS011;31340;51.402;0.016;2022-09-12T15:25:58;3.92;;;1.83;;
44774;SDS011;31340;51.402;0.016;2022-09-12T15:28:26;3.78;;;1.23;;
44774;SDS011;31340;51.402;0.016;2022-09-12T15:30:56;3.50;;;1.75;;
44774;SDS011;31340;51.402;0.016;2022-09-12T15:33:30;3.58;;;2.03;;
44774;SDS011;31340;51.402;0.016;2022-09-12T15:35:58;3.00;;;1.60;;
44774;SDS011;31340;51.402;0.016;2022-09-12T15:38:26;3.40;;;1.10;;
44774;SDS011;31340;51.402;0.016;2022-09-12T15:40:53;6.60;;;1.48;;
44774;SDS011;31340;51.402;0.016;2022-09-12T15:43:21;2.33;;;1.60;;
44774;SDS011;31340;51.402;0.016;2022-09-12T15:45:52;3.60;;;1.80;;
44774;SDS011;31340;51.402;0.016;2022-09-12T15:48:20;5.50;;;1.98;;
44774;SDS011;31340;51.402;0.016;2022-09-12T15:50:48;7.00;;;3.03;;
44774;SDS011;31340;51.402;0.016;2022-09-12T15:53:15;4.07;;;1.70;;
44774;SDS011;31340;51.402;0.016;2022-09-12T15:55:43;6.32;;;3.00;;
44774;SDS011;31340;51.402;0.016;2022-09-12T15:58:11;3.55;;;1.77;;
44774;SDS011;31340;51.402;0.016;2022-09-12T16:00:39;13.68;;;2.08;;
44774;SDS011;31340;51.402;0.016;2022-09-12T16:03:10;5.55;;;2.10;;
44774;SDS011;31340;51.402;0.016;2022-09-12T16:06:00;3.50;;;1.73;;
44774;SDS011;31340;51.402;0.016;2022-09-12T16:08:29;3.58;;;1.33;;
44774;SDS011;31340;51.402;0.016;2022-09-12T16:10:59;3.85;;;1.80;;
44774;SDS011;31340;51.402;0.016;2022-09-12T16:13:29;2.35;;;1.55;;
44774;SDS011;31340;51.402;0.016;2022-09-12T16:15:57;4.18;;;2.10;;
44774;SDS011;31340;51.402;0.016;2022-09-12T16:18:26;4.00;;;2.13;;
44774;SDS011;31340;51.402;0.016;2022-09-12T16:20:54;4.65;;;1.77;;
44774;SDS011;31340;51.402;0.016;2022-09-12T16:23:23;5.53;;;1.90;;
44774;SDS011;31340;51.402;0.016;2022-09-12T16:26:01;4.68;;;2.30;;
44774;SDS011;31340;51.402;0.016;2022-09-12T16:28:30;3.25;;;1.65;;
44774;SDS011;31340;51.402;0.016;2022-09-12T16:31:01;5.45;;;1.50;;
44774;SDS011;31340;51.402;0.016;2022-09-12T16:33:30;3.83;;;1.75;;
44774;SDS011;31340;51.402;0.016;2022-09-12T16:36:03;3.70;;;1.95;;
44774;SDS011;31340;51.402;0.016;2022-09-12T16:38:32;5.03;;;1.60;;
44774;SDS011;31340;51.402;0.016;2022-09-12T16:41:01;5.32;;;2.47;;
44774;SDS011;31340;51.402;0.016;2022-09-12T16:43:30;5.57;;;2.25;;
44774;SDS011;31340;51.402;0.016;2022-09-12T16:46:09;4.13;;;2.05;;
44774;SDS011;31340;51.402;0.016;2022-09-12T16:48:48;3.13;;;1.67;;
44774;SDS011;31340;51.402;0.016;2022-09-12T16:51:22;5.50;;;1.80;;
44774;SDS011;31340;51.402;0.016;2022-09-12T16:53:53;2.33;;;1.55;;
44774;SDS011;31340;51.402;0.016;2022-09-12T16:56:21;5.30;;;1.55;;
44774;SDS011;31340;51.402;0.016;2022-09-12T16:58:49;6.90;;;2.10;;
44774;SDS011;31340;51.402;0.016;2022-09-12T17:01:21;3.22;;;1.70;;
44774;SDS011;31340;51.402;0.016;2022-09-12T17:03:54;4.57;;;2.00;;
44774;SDS011;31340;51.402;0.016;2022-09-12T17:06:24;4.93;;;1.88;;
44774;SDS011;31340;51.402;0.016;2022-09-12T17:08:54;3.10;;;1.67;;
44774;SDS011;31340;51.402;0.016;2022-09-12T17:11:28;3.75;;;1.70;;
44774;SDS011;31340;51.402;0.016;2022-09-12T17:13:58;3.97;;;1.58;;
44774;SDS011;31340;51.402;0.016;2022-09-12T17:16:32;3.60;;;2.10;;
44774;SDS011;31340;51.402;0.016;2022-09-12T17:19:02;6.90;;;1.90;;
44774;SDS011;31340;51.402;0.016;2022-09-12T17:21:31;2.83;;;1.60;;
44774;SDS011;31340;51.402;0.016;2022-09-12T17:23:59;6.13;;;2.15;;
44774;SDS011;31340;51.402;0.016;2022-09-12T17:26:27;3.17;;;1.63;;
44774;SDS011;31340;51.402;0.016;2022-09-12T17:28:55;7.07;;;1.98;;
44774;SDS011;31340;51.402;0.016;2022-09-12T17:31:23;10.82;;;3.78;;
44774;SDS011;31340;51.402;0.016;2022-09-12T17:33:54;4.95;;;2.63;;
44774;SDS011;31340;51.402;0.016;2022-09-12T17:36:23;10.10;;;3.75;;
44774;SDS011;31340;51.402;0.016;2022-09-12T17:38:51;9.38;;;4.05;;
44774;SDS011;31340;51.402;0.016;2022-09-12T17:41:21;10.07;;;6.43;;
44774;SDS011;31340;51.402;0.016;2022-09-12T17:46:24;6.53;;;2.40;;
44774;SDS011;31340;51.402;0.016;2022-09-12T17:48:56;5.70;;;2.63;;
44774;SDS011;31340;51.402;0.016;2022-09-12T17:51:25;6.25;;;2.70;;
44774;SDS011;31340;51.402;0.016;2022-09-12T17:54:00;11.02;;;3.08;;
44774;SDS011;31340;51.402;0.016;2022-09-12T17:56:30;8.05;;;3.33;;
44774;SDS011;31340;51.402;0.016;2022-09-12T17:59:00;6.88;;;3.10;;
44774;SDS011;31340;51.402;0.016;2022-09-12T18:01:28;9.77;;;3.08;;
44774;SDS011;31340;51.402;0.016;2022-09-12T18:04:15;6.63;;;3.35;;